Search for airport 
image banner adimage banner adimage banner ad
image banner ad

98PN - Trauma Center

Located in Allentown, United States

ICAO - 98PN, IATA -

Data provided by Airmate  

General information

Coordinates: N40°33'40" W75°31'25"
Elevation is 400 feet MSL.
Magnetic variation is -11° East
View others Airports in Pennsylvania

Operational data

Special qualification required
Current time UTC:
Current local time:
Weather at : KXLL - Allentown Queen City Muni ( 3 km )
METAR: KXLL 061155Z AUTO 33012G18KT 10SM BKN040 10/03 A3002 RMK AO2
View NOTAMs / SUP AIP / TFR affecting this airport [VIEW]
Communications frequencies: [VIEW]

Runways:

Airport contact information

Address: Allentown United States

Satellite view of 98PN